sensor_id;sensor_type;location;lat;lon;timestamp;pressure;altitude;pressure_sealevel;temperature;humidity
49979;BME280;35869;50.990;6.962;2022-10-30T00:04:33;101454.44;;;15.63;93.28
49979;BME280;35869;50.990;6.962;2022-10-30T00:09:33;101465.75;;;15.63;93.11
49979;BME280;35869;50.990;6.962;2022-10-30T00:14:34;101464.91;;;15.63;92.76
49979;BME280;35869;50.990;6.962;2022-10-30T00:19:34;101447.31;;;15.65;93.92
49979;BME280;35869;50.990;6.962;2022-10-30T00:24:34;101463.19;;;15.62;93.83
49979;BME280;35869;50.990;6.962;2022-10-30T00:29:34;101459.66;;;15.63;92.69
49979;BME280;35869;50.990;6.962;2022-10-30T00:34:35;101451.72;;;15.64;92.92
49979;BME280;35869;50.990;6.962;2022-10-30T00:39:35;101460.50;;;15.63;94.09
49979;BME280;35869;50.990;6.962;2022-10-30T00:44:49;101457.91;;;15.63;93.19
49979;BME280;35869;50.990;6.962;2022-10-30T00:54:56;101453.50;;;15.64;93.41
49979;BME280;35869;50.990;6.962;2022-10-30T00:59:57;101453.50;;;15.64;92.33
49979;BME280;35869;50.990;6.962;2022-10-30T01:04:57;101452.66;;;15.63;93.60
49979;BME280;35869;50.990;6.962;2022-10-30T01:09:58;101454.44;;;15.63;94.24
49979;BME280;35869;50.990;6.962;2022-10-30T01:15:00;101460.72;;;15.59;94.34
49979;BME280;35869;50.990;6.962;2022-10-30T01:35:51;101452.59;;;15.47;95.31
49979;BME280;35869;50.990;6.962;2022-10-30T01:40:53;101457.06;;;15.45;95.40
49979;BME280;35869;50.990;6.962;2022-10-30T02:01:47;101464.97;;;15.28;97.05
49979;BME280;35869;50.990;6.962;2022-10-30T02:06:47;101463.41;;;15.24;98.29
49979;BME280;35869;50.990;6.962;2022-10-30T02:11:49;101468.13;;;15.17;98.78
49979;BME280;35869;50.990;6.962;2022-10-30T02:16:51;101444.97;;;15.10;99.42
49979;BME280;35869;50.990;6.962;2022-10-30T02:21:53;101436.34;;;15.08;99.19
49979;BME280;35869;50.990;6.962;2022-10-30T02:26:53;101427.03;;;15.02;100.00
49979;BME280;35869;50.990;6.962;2022-10-30T02:31:54;101419.44;;;14.98;99.13
49979;BME280;35869;50.990;6.962;2022-10-30T02:36:54;101424.97;;;14.91;100.00
49979;BME280;35869;50.990;6.962;2022-10-30T02:41:54;101433.97;;;14.86;100.00
49979;BME280;35869;50.990;6.962;2022-10-30T02:46:54;101447.28;;;14.81;100.00
49979;BME280;35869;50.990;6.962;2022-10-30T02:51:55;101433.69;;;14.75;100.00
49979;BME280;35869;50.990;6.962;2022-10-30T02:56:55;101434.81;;;14.69;100.00
49979;BME280;35869;50.990;6.962;2022-10-30T03:01:55;101437.66;;;14.64;100.00
49979;BME280;35869;50.990;6.962;2022-10-30T03:06:55;101441.44;;;14.59;100.00
49979;BME280;35869;50.990;6.962;2022-10-30T03:11:56;101439.75;;;14.58;100.00
49979;BME280;35869;50.990;6.962;2022-10-30T03:16:56;101440.81;;;14.54;100.00
49979;BME280;35869;50.990;6.962;2022-10-30T03:21:56;101427.97;;;14.49;100.00
49979;BME280;35869;50.990;6.962;2022-10-30T03:26:56;101439.69;;;14.40;100.00
49979;BME280;35869;50.990;6.962;2022-10-30T03:31:57;101437.28;;;14.36;100.00
49979;BME280;35869;50.990;6.962;2022-10-30T03:36:57;101438.44;;;14.30;100.00
49979;BME280;35869;50.990;6.962;2022-10-30T03:41:57;101447.38;;;14.26;100.00
49979;BME280;35869;50.990;6.962;2022-10-30T03:46:57;101455.44;;;14.22;100.00
49979;BME280;35869;50.990;6.962;2022-10-30T03:51:57;101454.72;;;14.18;100.00
49979;BME280;35869;50.990;6.962;2022-10-30T03:56:58;101456.72;;;14.13;100.00
49979;BME280;35869;50.990;6.962;2022-10-30T04:01:58;101472.53;;;14.10;100.00
49979;BME280;35869;50.990;6.962;2022-10-30T04:06:58;101476.38;;;14.03;100.00
49979;BME280;35869;50.990;6.962;2022-10-30T04:11:58;101478.97;;;14.03;100.00
49979;BME280;35869;50.990;6.962;2022-10-30T04:16:59;101479.31;;;13.95;100.00
49979;BME280;35869;50.990;6.962;2022-10-30T04:21:59;101485.81;;;13.86;100.00
49979;BME280;35869;50.990;6.962;2022-10-30T04:26:59;101490.28;;;13.84;100.00
49979;BME280;35869;50.990;6.962;2022-10-30T04:31:59;101486.22;;;13.77;100.00
49979;BME280;35869;50.990;6.962;2022-10-30T04:36:59;101484.63;;;13.75;100.00
49979;BME280;35869;50.990;6.962;2022-10-30T04:42:00;101478.75;;;13.70;100.00
49979;BME280;35869;50.990;6.962;2022-10-30T04:47:00;101477.13;;;13.67;100.00
49979;BME280;35869;50.990;6.962;2022-10-30T04:52:00;101474.81;;;13.61;100.00
49979;BME280;35869;50.990;6.962;2022-10-30T04:57:00;101477.47;;;13.59;100.00
49979;BME280;35869;50.990;6.962;2022-10-30T05:02:01;101475.91;;;13.55;100.00
49979;BME280;35869;50.990;6.962;2022-10-30T05:07:01;101466.41;;;13.54;100.00
49979;BME280;35869;50.990;6.962;2022-10-30T05:12:01;101472.00;;;13.45;100.00
49979;BME280;35869;50.990;6.962;2022-10-30T05:17:01;101450.34;;;13.43;100.00
49979;BME280;35869;50.990;6.962;2022-10-30T05:22:02;101449.81;;;13.35;100.00
49979;BME280;35869;50.990;6.962;2022-10-30T05:27:02;101450.75;;;13.34;100.00
49979;BME280;35869;50.990;6.962;2022-10-30T05:32:03;101442.19;;;13.30;100.00
49979;BME280;35869;50.990;6.962;2022-10-30T05:37:03;101440.56;;;13.28;100.00
49979;BME280;35869;50.990;6.962;2022-10-30T05:42:03;101433.84;;;13.22;100.00
49979;BME280;35869;50.990;6.962;2022-10-30T05:47:03;101433.78;;;13.24;100.00
49979;BME280;35869;50.990;6.962;2022-10-30T05:52:04;101426.16;;;13.19;100.00
49979;BME280;35869;50.990;6.962;2022-10-30T05:57:04;101424.56;;;13.15;100.00
49979;BME280;35869;50.990;6.962;2022-10-30T06:02:04;101430.63;;;13.16;100.00
49979;BME280;35869;50.990;6.962;2022-10-30T06:07:04;101423.94;;;13.10;100.00
49979;BME280;35869;50.990;6.962;2022-10-30T06:12:05;101430.72;;;13.14;100.00
49979;BME280;35869;50.990;6.962;2022-10-30T06:17:05;101426.59;;;13.08;100.00
49979;BME280;35869;50.990;6.962;2022-10-30T06:22:05;101432.75;;;13.07;100.00
49979;BME280;35869;50.990;6.962;2022-10-30T06:27:06;101444.31;;;13.02;100.00
49979;BME280;35869;50.990;6.962;2022-10-30T06:32:07;101444.31;;;13.02;100.00
49979;BME280;35869;50.990;6.962;2022-10-30T06:37:07;101442.78;;;12.96;100.00
49979;BME280;35869;50.990;6.962;2022-10-30T06:42:08;101444.78;;;12.90;100.00
49979;BME280;35869;50.990;6.962;2022-10-30T06:47:08;101453.69;;;12.86;100.00
49979;BME280;35869;50.990;6.962;2022-10-30T06:52:08;101456.16;;;12.89;100.00
49979;BME280;35869;50.990;6.962;2022-10-30T06:57:08;101464.22;;;12.82;100.00
49979;BME280;35869;50.990;6.962;2022-10-30T07:02:09;101473.22;;;12.75;100.00
49979;BME280;35869;50.990;6.962;2022-10-30T07:07:10;101475.06;;;12.73;100.00
49979;BME280;35869;50.990;6.962;2022-10-30T07:12:11;101475.06;;;12.73;100.00
49979;BME280;35869;50.990;6.962;2022-10-30T07:17:11;101473.38;;;12.72;100.00
49979;BME280;35869;50.990;6.962;2022-10-30T07:22:11;101473.41;;;12.71;100.00
49979;BME280;35869;50.990;6.962;2022-10-30T07:27:11;101483.91;;;12.69;100.00
49979;BME280;35869;50.990;6.962;2022-10-30T07:32:11;101476.03;;;12.71;100.00
49979;BME280;35869;50.990;6.962;2022-10-30T07:37:12;101460.97;;;12.77;100.00
49979;BME280;35869;50.990;6.962;2022-10-30T07:42:12;101472.25;;;12.78;100.00
49979;BME280;35869;50.990;6.962;2022-10-30T07:47:12;101476.75;;;12.74;100.00
49979;BME280;35869;50.990;6.962;2022-10-30T07:52:13;101473.22;;;12.75;100.00
49979;BME280;35869;50.990;6.962;2022-10-30T07:57:13;101473.22;;;12.75;100.00
49979;BME280;35869;50.990;6.962;2022-10-30T08:02:13;101471.28;;;12.80;100.00
49979;BME280;35869;50.990;6.962;2022-10-30T08:07:13;101471.63;;;12.93;100.00
49979;BME280;35869;50.990;6.962;2022-10-30T08:12:14;101471.44;;;12.98;100.00
49979;BME280;35869;50.990;6.962;2022-10-30T08:17:14;101475.63;;;13.02;100.00
49979;BME280;35869;50.990;6.962;2022-10-30T08:22:15;101472.59;;;13.11;100.00
49979;BME280;35869;50.990;6.962;2022-10-30T08:27:15;101467.69;;;13.25;100.00
49979;BME280;35869;50.990;6.962;2022-10-30T08:32:15;101468.84;;;13.39;100.00
49979;BME280;35869;50.990;6.962;2022-10-30T08:37:16;101475.97;;;13.54;100.00
49979;BME280;35869;50.990;6.962;2022-10-30T08:42:16;101476.63;;;13.59;100.00
49979;BME280;35869;50.990;6.962;2022-10-30T08:47:16;101467.59;;;13.66;100.00
49979;BME280;35869;50.990;6.962;2022-10-30T08:52:17;101463.78;;;13.73;100.00
49979;BME280;35869;50.990;6.962;2022-10-30T08:57:17;101459.78;;;13.66;100.00
49979;BME280;35869;50.990;6.962;2022-10-30T09:02:17;101453.63;;;13.86;100.00
49979;BME280;35869;50.990;6.962;2022-10-30T09:07:17;101452.34;;;13.95;100.00
49979;BME280;35869;50.990;6.962;2022-10-30T09:12:18;101444.84;;;14.06;100.00
49979;BME280;35869;50.990;6.962;2022-10-30T09:17:18;101436.72;;;14.12;100.00
49979;BME280;35869;50.990;6.962;2022-10-30T09:22:18;101448.81;;;14.14;100.00
49979;BME280;35869;50.990;6.962;2022-10-30T09:27:18;101435.81;;;14.30;100.00
49979;BME280;35869;50.990;6.962;2022-10-30T09:32:19;101426.03;;;14.53;100.00
49979;BME280;35869;50.990;6.962;2022-10-30T09:37:19;101426.66;;;14.75;100.00
49979;BME280;35869;50.990;6.962;2022-10-30T10:09:18;101419.34;;;15.32;98.98
49979;BME280;35869;50.990;6.962;2022-10-30T10:19:29;101413.03;;;15.85;95.13
49979;BME280;35869;50.990;6.962;2022-10-30T10:24:33;101412.28;;;15.83;96.77
49979;BME280;35869;50.990;6.962;2022-10-30T10:51:03;101404.94;;;16.66;93.85
49979;BME280;35869;50.990;6.962;2022-10-30T10:56:06;101400.63;;;16.95;90.43
49979;BME280;35869;50.990;6.962;2022-10-30T11:01:13;101394.31;;;16.97;92.18
49979;BME280;35869;50.990;6.962;2022-10-30T11:11:16;101390.09;;;17.23;90.96
49979;BME280;35869;50.990;6.962;2022-10-30T11:16:37;101383.97;;;17.51;88.03
49979;BME280;35869;50.990;6.962;2022-10-30T11:21:42;101377.94;;;17.64;88.48
49979;BME280;35869;50.990;6.962;2022-10-30T11:26:44;101370.50;;;17.70;91.15
49979;BME280;35869;50.990;6.962;2022-10-30T11:31:44;101369.97;;;17.79;90.41
49979;BME280;35869;50.990;6.962;2022-10-30T11:36:49;101362.38;;;18.02;86.41
49979;BME280;35869;50.990;6.962;2022-10-30T11:46:59;101349.84;;;18.05;90.97
49979;BME280;35869;50.990;6.962;2022-10-30T11:52:00;101356.16;;;18.30;87.89
49979;BME280;35869;50.990;6.962;2022-10-30T11:57:01;101349.50;;;18.24;91.87
49979;BME280;35869;50.990;6.962;2022-10-30T12:02:18;101342.50;;;18.63;86.22
49979;BME280;35869;50.990;6.962;2022-10-30T12:12:42;101345.38;;;18.73;86.09
49979;BME280;35869;50.990;6.962;2022-10-30T12:18:02;101339.38;;;18.71;88.24
49979;BME280;35869;50.990;6.962;2022-10-30T12:23:16;101343.03;;;18.94;82.45
49979;BME280;35869;50.990;6.962;2022-10-30T12:28:27;101337.25;;;19.01;85.89
49979;BME280;35869;50.990;6.962;2022-10-30T12:33:33;101335.72;;;19.23;81.70
49979;BME280;35869;50.990;6.962;2022-10-30T12:38:56;101332.72;;;19.40;78.01
49979;BME280;35869;50.990;6.962;2022-10-30T12:44:26;101340.25;;;19.33;78.87
49979;BME280;35869;50.990;6.962;2022-10-30T13:00:11;101329.44;;;19.62;78.00
49979;BME280;35869;50.990;6.962;2022-10-30T13:05:23;101332.38;;;19.57;80.90
49979;BME280;35869;50.990;6.962;2022-10-30T13:15:30;101318.44;;;19.92;74.73
49979;BME280;35869;50.990;6.962;2022-10-30T13:20:33;101307.41;;;19.98;74.69
49979;BME280;35869;50.990;6.962;2022-10-30T13:31:16;101305.66;;;20.10;71.56
49979;BME280;35869;50.990;6.962;2022-10-30T13:36:45;101297.66;;;20.11;74.73
49979;BME280;35869;50.990;6.962;2022-10-30T13:42:15;101304.16;;;20.18;72.45
49979;BME280;35869;50.990;6.962;2022-10-30T13:52:39;101317.59;;;20.27;70.95
49979;BME280;35869;50.990;6.962;2022-10-30T13:57:44;101313.88;;;20.18;71.99
49979;BME280;35869;50.990;6.962;2022-10-30T14:08:20;101306.53;;;20.21;73.07
49979;BME280;35869;50.990;6.962;2022-10-30T14:19:04;101308.34;;;20.21;79.38
49979;BME280;35869;50.990;6.962;2022-10-30T14:24:22;101309.44;;;20.18;76.58
49979;BME280;35869;50.990;6.962;2022-10-30T14:39:52;101304.47;;;20.14;80.70
49979;BME280;35869;50.990;6.962;2022-10-30T14:45:06;101308.81;;;20.15;76.59
49979;BME280;35869;50.990;6.962;2022-10-30T15:10:59;101323.94;;;19.89;75.63
49979;BME280;35869;50.990;6.962;2022-10-30T15:16:07;101323.94;;;19.89;81.26
49979;BME280;35869;50.990;6.962;2022-10-30T15:21:17;101316.56;;;19.81;85.13
49979;BME280;35869;50.990;6.962;2022-10-30T15:26:21;101321.75;;;19.83;78.29
49979;BME280;35869;50.990;6.962;2022-10-30T15:31:24;101323.25;;;19.74;79.16
49979;BME280;35869;50.990;6.962;2022-10-30T15:36:27;101329.09;;;19.66;77.34
49979;BME280;35869;50.990;6.962;2022-10-30T15:41:28;101332.91;;;19.62;82.60
49979;BME280;35869;50.990;6.962;2022-10-30T15:46:29;101340.63;;;19.53;84.56
49979;BME280;35869;50.990;6.962;2022-10-30T15:51:30;101340.00;;;19.49;83.72
49979;BME280;35869;50.990;6.962;2022-10-30T15:56:33;101352.59;;;19.33;85.64
49979;BME280;35869;50.990;6.962;2022-10-30T16:01:43;101362.53;;;19.29;82.85
49979;BME280;35869;50.990;6.962;2022-10-30T16:11:51;101374.25;;;19.12;87.84
49979;BME280;35869;50.990;6.962;2022-10-30T16:16:53;101381.94;;;19.03;88.71
49979;BME280;35869;50.990;6.962;2022-10-30T16:21:54;101386.38;;;18.89;88.70
49979;BME280;35869;50.990;6.962;2022-10-30T16:27:18;101391.72;;;18.75;88.62
49979;BME280;35869;50.990;6.962;2022-10-30T16:32:22;101400.41;;;18.63;89.26
49979;BME280;35869;50.990;6.962;2022-10-30T16:37:27;101400.41;;;18.50;89.03
49979;BME280;35869;50.990;6.962;2022-10-30T16:42:32;101405.53;;;18.39;89.18
49979;BME280;35869;50.990;6.962;2022-10-30T16:47:36;101415.91;;;18.28;89.23
49979;BME280;35869;50.990;6.962;2022-10-30T16:52:37;101433.06;;;18.21;88.99
49979;BME280;35869;50.990;6.962;2022-10-30T16:57:43;101447.94;;;18.07;87.56
49979;BME280;35869;50.990;6.962;2022-10-30T17:02:46;101452.66;;;18.02;87.99
49979;BME280;35869;50.990;6.962;2022-10-30T17:13:28;101469.16;;;17.77;89.62
49979;BME280;35869;50.990;6.962;2022-10-30T17:18:29;101470.72;;;17.66;89.93
49979;BME280;35869;50.990;6.962;2022-10-30T17:23:29;101474.13;;;17.53;89.83
49979;BME280;35869;50.990;6.962;2022-10-30T17:28:33;101484.44;;;17.42;89.90
49979;BME280;35869;50.990;6.962;2022-10-30T17:33:35;101504.41;;;17.30;90.79
49979;BME280;35869;50.990;6.962;2022-10-30T17:38:36;101511.97;;;17.21;91.01
49979;BME280;35869;50.990;6.962;2022-10-30T17:43:47;101527.44;;;17.11;91.05
49979;BME280;35869;50.990;6.962;2022-10-30T17:48:49;101534.09;;;17.02;90.96
49979;BME280;35869;50.990;6.962;2022-10-30T17:53:50;101533.00;;;16.91;91.23
49979;BME280;35869;50.990;6.962;2022-10-30T17:58:50;101538.72;;;16.83;91.39
49979;BME280;35869;50.990;6.962;2022-10-30T18:03:52;101544.47;;;16.74;91.72
49979;BME280;35869;50.990;6.962;2022-10-30T18:08:53;101546.69;;;16.66;91.80
49979;BME280;35869;50.990;6.962;2022-10-30T18:13:55;101547.94;;;16.59;91.59
49979;BME280;35869;50.990;6.962;2022-10-30T18:18:55;101548.13;;;16.56;91.23
49979;BME280;35869;50.990;6.962;2022-10-30T18:23:55;101558.16;;;16.47;91.24
49979;BME280;35869;50.990;6.962;2022-10-30T18:28:56;101565.88;;;16.35;92.38
49979;BME280;35869;50.990;6.962;2022-10-30T18:33:56;101573.75;;;16.35;91.55
49979;BME280;35869;50.990;6.962;2022-10-30T18:38:56;101574.44;;;16.22;92.00
49979;BME280;35869;50.990;6.962;2022-10-30T18:43:57;101572.38;;;16.12;92.29
49979;BME280;35869;50.990;6.962;2022-10-30T18:48:57;101583.97;;;16.08;92.18
49979;BME280;35869;50.990;6.962;2022-10-30T18:53:57;101591.34;;;16.01;92.13
49979;BME280;35869;50.990;6.962;2022-10-30T18:58:57;101589.78;;;15.97;92.21
49979;BME280;35869;50.990;6.962;2022-10-30T19:03:58;101584.69;;;15.94;92.03
49979;BME280;35869;50.990;6.962;2022-10-30T19:08:58;101600.75;;;15.88;92.16
49979;BME280;35869;50.990;6.962;2022-10-30T19:13:58;101603.69;;;15.82;92.68
49979;BME280;35869;50.990;6.962;2022-10-30T19:18:58;101602.41;;;15.73;93.01
49979;BME280;35869;50.990;6.962;2022-10-30T19:24:01;101602.88;;;15.64;92.90
49979;BME280;35869;50.990;6.962;2022-10-30T19:29:01;101602.16;;;15.60;93.31
49979;BME280;35869;50.990;6.962;2022-10-30T19:34:01;101605.84;;;15.56;93.38
49979;BME280;35869;50.990;6.962;2022-10-30T19:39:03;101614.97;;;15.49;93.79
49979;BME280;35869;50.990;6.962;2022-10-30T19:44:09;101610.72;;;15.46;94.08
49979;BME280;35869;50.990;6.962;2022-10-30T19:49:15;101616.34;;;15.39;94.18
49979;BME280;35869;50.990;6.962;2022-10-30T19:54:16;101618.97;;;15.39;94.29
49979;BME280;35869;50.990;6.962;2022-10-30T19:59:16;101627.22;;;15.31;94.22
49979;BME280;35869;50.990;6.962;2022-10-30T20:04:16;101630.13;;;15.25;94.75
49979;BME280;35869;50.990;6.962;2022-10-30T20:09:17;101631.34;;;15.18;95.02
49979;BME280;35869;50.990;6.962;2022-10-30T20:14:17;101635.81;;;15.16;95.83
49979;BME280;35869;50.990;6.962;2022-10-30T20:24:26;101639.25;;;14.99;96.01
49979;BME280;35869;50.990;6.962;2022-10-30T20:29:26;101641.31;;;14.92;96.77
49979;BME280;35869;50.990;6.962;2022-10-30T20:34:27;101637.13;;;14.88;96.84
49979;BME280;35869;50.990;6.962;2022-10-30T20:39:27;101644.44;;;14.82;97.55
49979;BME280;35869;50.990;6.962;2022-10-30T20:44:27;101653.38;;;14.78;98.68
49979;BME280;35869;50.990;6.962;2022-10-30T20:49:28;101659.84;;;14.69;98.52
49979;BME280;35869;50.990;6.962;2022-10-30T20:54:28;101659.09;;;14.67;98.66
49979;BME280;35869;50.990;6.962;2022-10-30T20:59:28;101654.91;;;14.63;98.99
49979;BME280;35869;50.990;6.962;2022-10-30T21:04:29;101664.59;;;14.61;99.03
49979;BME280;35869;50.990;6.962;2022-10-30T21:09:29;101668.06;;;14.61;98.01
49979;BME280;35869;50.990;6.962;2022-10-30T21:14:29;101677.16;;;14.53;98.63
49979;BME280;35869;50.990;6.962;2022-10-30T21:19:29;101676.41;;;14.51;98.95
49979;BME280;35869;50.990;6.962;2022-10-30T21:24:30;101678.50;;;14.43;98.66
49979;BME280;35869;50.990;6.962;2022-10-30T21:29:30;101690.66;;;14.44;98.20
49979;BME280;35869;50.990;6.962;2022-10-30T21:34:30;101691.03;;;14.34;99.05
49979;BME280;35869;50.990;6.962;2022-10-30T21:39:30;101692.16;;;14.29;98.86
49979;BME280;35869;50.990;6.962;2022-10-30T21:44:31;101704.31;;;14.30;98.18
49979;BME280;35869;50.990;6.962;2022-10-30T21:49:31;101706.50;;;14.20;98.82
49979;BME280;35869;50.990;6.962;2022-10-30T21:54:31;101708.59;;;14.12;99.27
49979;BME280;35869;50.990;6.962;2022-10-30T21:59:32;101719.19;;;14.09;98.57
49979;BME280;35869;50.990;6.962;2022-10-30T22:04:32;101723.69;;;14.05;99.39
49979;BME280;35869;50.990;6.962;2022-10-30T22:09:32;101720.38;;;14.02;98.93
49979;BME280;35869;50.990;6.962;2022-10-30T22:14:32;101728.34;;;13.99;99.48
49979;BME280;35869;50.990;6.962;2022-10-30T22:19:32;101734.75;;;13.92;99.56
49979;BME280;35869;50.990;6.962;2022-10-30T22:24:33;101733.03;;;13.91;99.76
49979;BME280;35869;50.990;6.962;2022-10-30T22:29:33;101738.53;;;13.84;99.73
49979;BME280;35869;50.990;6.962;2022-10-30T22:34:33;101734.25;;;13.82;99.42
49979;BME280;35869;50.990;6.962;2022-10-30T22:39:33;101738.72;;;13.80;99.75
49979;BME280;35869;50.990;6.962;2022-10-30T22:44:34;101750.44;;;13.70;100.00
49979;BME280;35869;50.990;6.962;2022-10-30T22:49:34;101742.53;;;13.71;100.00
49979;BME280;35869;50.990;6.962;2022-10-30T22:54:34;101747.91;;;13.68;100.00
49979;BME280;35869;50.990;6.962;2022-10-30T22:59:34;101744.53;;;13.66;100.00
49979;BME280;35869;50.990;6.962;2022-10-30T23:04:34;101748.25;;;13.59;100.00
49979;BME280;35869;50.990;6.962;2022-10-30T23:09:35;101746.72;;;13.55;100.00
49979;BME280;35869;50.990;6.962;2022-10-30T23:14:35;101751.25;;;13.50;100.00
49979;BME280;35869;50.990;6.962;2022-10-30T23:19:35;101762.63;;;13.49;100.00
49979;BME280;35869;50.990;6.962;2022-10-30T23:24:35;101751.69;;;13.39;100.00
49979;BME280;35869;50.990;6.962;2022-10-30T23:29:36;101754.22;;;13.41;100.00
49979;BME280;35869;50.990;6.962;2022-10-30T23:34:36;101757.81;;;13.38;100.00
49979;BME280;35869;50.990;6.962;2022-10-30T23:39:36;101760.47;;;13.37;100.00
49979;BME280;35869;50.990;6.962;2022-10-30T23:44:36;101754.47;;;13.34;100.00
49979;BME280;35869;50.990;6.962;2022-10-30T23:49:37;101767.59;;;13.33;100.00
49979;BME280;35869;50.990;6.962;2022-10-30T23:54:37;101761.94;;;13.22;100.00
49979;BME280;35869;50.990;6.962;2022-10-30T23:59:37;101773.44;;;13.16;100.00
